ěÝzenÝ letovÚho provozu ╚eskÚ republiky
Letiste: LKCV Aktualizace: 27.02.2020 00:00:26  UTC
 METAR LKCV 27.02. 00:00 ...
METAR LKCV 270000Z 25011KT CAVOK 02/M02 Q1003 NOSIG RMK BLU BLU=
 TAF LKCV 26.02. 23:00 ...
TAF LKCV 262300Z 2700/2800 25010KT 9999 BKN040      TEMPO 2700/2714 27014G24KT 6000 SHRASN BKN020TCU      BECMG 2714/2717 17007KT      TEMPO 2721/2800 00014KT 4000 SNRA BKN015=